createdAt,value
2019-05-10T00:00:18.589Z,75.00
2019-05-10T00:05:54.900Z,74.67
2019-05-10T00:11:20.152Z,74.56
2019-05-10T00:16:38.827Z,75.13
2019-05-10T00:21:57.880Z,75.30
2019-05-10T00:27:16.744Z,75.12
2019-05-10T00:32:35.387Z,74.67
2019-05-10T00:37:54.329Z,74.06
2019-05-10T00:43:13.036Z,74.36
2019-05-10T00:48:31.759Z,74.18
2019-05-10T00:53:50.673Z,72.98
2019-05-10T00:59:09.256Z,72.13
2019-05-10T01:04:28.091Z,72.49
2019-05-10T01:09:46.966Z,73.68
2019-05-10T01:15:10.545Z,73.76
2019-05-10T01:20:29.324Z,73.71
2019-05-10T01:25:48.070Z,73.89
2019-05-10T01:31:06.792Z,74.19
2019-05-10T01:36:25.809Z,73.75
2019-05-10T01:41:44.440Z,73.53
2019-05-10T01:47:03.084Z,73.53
2019-05-10T01:52:21.841Z,73.16
2019-05-10T01:57:40.466Z,73.50
2019-05-10T02:02:59.189Z,73.56
2019-05-10T02:08:17.892Z,73.76
2019-05-10T02:13:36.521Z,73.42
2019-05-10T02:18:55.188Z,73.30
2019-05-10T02:24:13.834Z,73.06
2019-05-10T02:29:32.475Z,73.05
2019-05-10T02:34:51.228Z,72.90
2019-05-10T02:40:10.382Z,72.90
2019-05-10T02:45:29.005Z,72.99
2019-05-10T02:50:47.674Z,72.60
2019-05-10T02:56:06.400Z,72.67
2019-05-10T03:01:28.328Z,72.42
2019-05-10T03:06:48.913Z,72.50
2019-05-10T03:12:22.805Z,71.98
2019-05-10T03:17:42.028Z,72.05
2019-05-10T03:23:02.275Z,71.91
2019-05-10T03:28:20.902Z,71.73
2019-05-10T03:33:39.678Z,71.28
2019-05-10T03:38:58.376Z,71.14
2019-05-10T03:44:17.014Z,71.08
2019-05-10T03:49:35.647Z,71.24
2019-05-10T03:54:54.226Z,72.28
2019-05-10T04:00:13.353Z,73.16
2019-05-10T04:05:32.001Z,73.67
2019-05-10T04:10:50.657Z,74.11
2019-05-10T04:16:09.269Z,74.39
2019-05-10T04:21:28.240Z,74.69
2019-05-10T04:26:46.829Z,74.96
2019-05-10T04:32:05.446Z,75.24
2019-05-10T04:37:24.096Z,75.50
2019-05-10T04:42:42.720Z,75.96
2019-05-10T04:48:01.469Z,76.20
2019-05-10T04:53:20.223Z,76.37
2019-05-10T04:58:38.874Z,76.76
2019-05-10T05:03:57.520Z,76.83
2019-05-10T05:09:16.152Z,76.88
2019-05-10T05:14:34.903Z,77.00
2019-05-10T05:19:53.555Z,77.16
2019-05-10T05:25:12.603Z,77.32
2019-05-10T05:30:31.196Z,77.25
2019-05-10T05:35:50.150Z,77.06
2019-05-10T05:41:09.109Z,77.03
2019-05-10T05:46:27.731Z,77.10
2019-05-10T05:51:46.388Z,77.23
2019-05-10T05:57:05.378Z,77.14
2019-05-10T06:02:23.983Z,76.82
2019-05-10T06:07:42.632Z,76.85
2019-05-10T06:13:01.393Z,76.51
2019-05-10T06:18:20.254Z,76.01
2019-05-10T06:23:38.849Z,75.92
2019-05-10T06:29:03.324Z,75.61
2019-05-10T06:34:17.907Z,75.21
2019-05-10T06:39:36.553Z,74.87
2019-05-10T06:44:55.140Z,74.01
2019-05-10T06:50:15.293Z,72.79
2019-05-10T06:55:33.884Z,69.67
2019-05-10T07:00:52.900Z,68.83
2019-05-10T07:06:11.899Z,69.02
2019-05-10T07:11:30.538Z,66.43
2019-05-10T07:16:49.176Z,65.65
2019-05-10T07:22:07.821Z,64.57
2019-05-10T07:27:26.483Z,64.77
2019-05-10T07:32:45.162Z,65.67
2019-05-10T07:38:03.793Z,64.49
2019-05-10T07:43:26.637Z,64.88
2019-05-10T07:48:46.952Z,64.20
2019-05-10T07:54:06.186Z,62.32
2019-05-10T07:59:29.060Z,65.06
2019-05-10T08:04:44.078Z,64.95
2019-05-10T08:10:04.682Z,63.56
2019-05-10T08:15:24.748Z,63.18
2019-05-10T08:20:50.312Z,64.29
2019-05-10T08:26:04.641Z,64.23
2019-05-10T08:31:26.263Z,63.56
2019-05-10T08:36:47.614Z,62.74
2019-05-10T08:42:13.589Z,63.30
2019-05-10T08:47:27.620Z,62.63
2019-05-10T08:52:44.668Z,61.62
2019-05-10T08:58:03.301Z,58.75
2019-05-10T09:03:22.841Z,56.86
2019-05-10T09:08:43.184Z,57.69
2019-05-10T09:14:03.141Z,55.11
2019-05-10T09:19:27.697Z,56.81
2019-05-10T09:24:48.538Z,55.96
2019-05-10T09:30:03.041Z,55.19
2019-05-10T09:35:22.227Z,59.23
2019-05-10T09:40:50.702Z,58.70
2019-05-10T09:46:02.735Z,58.27
2019-05-10T09:51:27.937Z,57.58
2019-05-10T09:56:44.281Z,57.27
2019-05-10T10:02:05.066Z,58.05
2019-05-10T10:07:24.237Z,56.45
2019-05-10T10:12:42.508Z,57.85
2019-05-10T10:18:01.357Z,58.33
2019-05-10T10:23:24.567Z,58.15
2019-05-10T10:28:40.189Z,56.95
2019-05-10T10:34:02.622Z,55.48
2019-05-10T10:39:22.794Z,54.27
2019-05-10T10:44:39.556Z,52.93
2019-05-10T10:50:02.942Z,54.96
2019-05-10T10:55:18.904Z,54.95
2019-05-10T11:00:38.919Z,52.61
2019-05-10T11:05:57.861Z,55.85
2019-05-10T11:11:16.484Z,54.08
2019-05-10T11:16:35.052Z,54.55
2019-05-10T11:21:53.698Z,54.12
2019-05-10T11:27:17.143Z,53.55
2019-05-10T11:32:32.568Z,54.26
2019-05-10T11:37:51.144Z,53.09
2019-05-10T11:43:09.783Z,56.04
2019-05-10T11:48:36.802Z,57.76
2019-05-10T11:53:55.447Z,58.88
2019-05-10T11:59:15.946Z,61.73
2019-05-10T12:04:38.150Z,62.57
2019-05-10T12:09:53.434Z,61.09
2019-05-10T12:15:13.868Z,59.51
2019-05-10T12:20:53.640Z,59.27
2019-05-10T12:26:49.931Z,58.29
2019-05-10T12:31:15.922Z,58.97
2019-05-10T12:36:32.634Z,58.98
2019-05-10T12:41:52.971Z,57.94
2019-05-10T12:47:11.750Z,59.38
2019-05-10T12:52:32.169Z,59.78
2019-05-10T12:57:50.924Z,60.68
2019-05-10T13:03:12.689Z,58.25
2019-05-10T13:08:29.851Z,59.06
2019-05-10T13:13:48.523Z,54.33
2019-05-10T13:19:07.304Z,52.40
2019-05-10T13:24:26.038Z,53.57
2019-05-10T13:29:47.190Z,49.89
2019-05-10T13:35:06.933Z,52.44
2019-05-10T13:40:25.438Z,51.52
2019-05-10T13:45:44.219Z,50.79
2019-05-10T13:51:02.900Z,48.04
2019-05-10T13:56:21.480Z,47.98
2019-05-10T14:01:44.240Z,49.26
2019-05-10T14:07:00.584Z,49.31
2019-05-10T14:12:23.463Z,48.69
2019-05-10T14:17:39.659Z,48.71
2019-05-10T14:22:59.014Z,48.19
2019-05-10T14:28:17.912Z,49.16
2019-05-10T14:33:36.834Z,46.54
2019-05-10T14:38:56.379Z,48.57
2019-05-10T14:44:15.499Z,47.91
2019-05-10T14:49:34.158Z,48.67
2019-05-10T14:54:55.215Z,47.90
2019-05-10T15:00:13.921Z,58.84
2019-05-10T15:05:36.279Z,64.58
2019-05-10T15:10:57.023Z,66.18
2019-05-10T15:16:25.747Z,67.71
2019-05-10T15:21:34.879Z,67.06
2019-05-10T15:26:53.506Z,63.35
2019-05-10T15:32:12.223Z,60.90
2019-05-10T15:37:30.869Z,62.23
2019-05-10T15:42:49.533Z,58.27
2019-05-10T15:48:08.244Z,58.22
2019-05-10T15:53:27.457Z,58.74
2019-05-10T15:58:46.061Z,58.92
2019-05-10T16:04:04.883Z,57.22
2019-05-10T16:09:23.627Z,56.81
2019-05-10T16:14:45.557Z,57.52
2019-05-10T16:20:03.185Z,57.92
2019-05-10T16:25:22.205Z,56.20
2019-05-10T16:30:40.944Z,55.86
2019-05-10T16:35:59.657Z,55.24
2019-05-10T16:41:18.347Z,56.40
2019-05-10T16:46:36.988Z,57.58
2019-05-10T16:51:55.658Z,57.51
2019-05-10T16:57:14.283Z,59.68
2019-05-10T17:02:36.767Z,67.13
2019-05-10T17:07:53.650Z,71.33
2019-05-10T17:13:13.511Z,72.75
2019-05-10T17:18:32.150Z,74.24
2019-05-10T17:23:50.878Z,74.24
2019-05-10T17:29:12.920Z,73.92
2019-05-10T17:34:29.865Z,71.70
2019-05-10T17:39:48.441Z,73.22
2019-05-10T17:45:11.926Z,73.36
2019-05-10T17:50:30.535Z,71.97
2019-05-10T17:55:55.606Z,69.98
2019-05-10T18:01:09.596Z,66.67
2019-05-10T18:06:28.543Z,64.68
2019-05-10T18:11:47.166Z,64.14
2019-05-10T18:17:07.283Z,66.24
2019-05-10T18:22:26.255Z,67.31
2019-05-10T18:27:44.857Z,67.18
2019-05-10T18:33:06.696Z,66.04
2019-05-10T18:38:23.828Z,65.83
2019-05-10T18:43:42.957Z,65.61
2019-05-10T18:49:01.686Z,68.52
2019-05-10T18:54:20.649Z,69.90
2019-05-10T18:59:39.963Z,71.70
2019-05-10T19:04:59.836Z,74.58
2019-05-10T19:10:18.526Z,73.58
2019-05-10T19:15:37.146Z,73.74
2019-05-10T19:20:55.708Z,74.17
2019-05-10T19:26:17.521Z,74.21
2019-05-10T19:31:38.083Z,74.36
2019-05-10T19:36:55.597Z,74.46
2019-05-10T19:42:14.245Z,75.26
2019-05-10T19:47:33.306Z,75.88
2019-05-10T19:52:52.489Z,76.40
2019-05-10T19:58:11.179Z,76.53
2019-05-10T20:03:30.469Z,76.79
2019-05-10T20:08:49.430Z,76.96
2019-05-10T20:14:10.110Z,76.85
2019-05-10T20:19:28.881Z,76.80
2019-05-10T20:24:47.544Z,77.21
2019-05-10T20:30:07.691Z,77.66
2019-05-10T20:35:26.413Z,77.70
2019-05-10T20:40:44.968Z,77.78
2019-05-10T20:46:07.045Z,77.67
2019-05-10T20:51:24.422Z,77.88
2019-05-10T20:56:43.461Z,77.70
2019-05-10T21:02:02.013Z,78.29
2019-05-10T21:07:20.607Z,78.61
2019-05-10T21:12:39.107Z,79.11
2019-05-10T21:17:57.755Z,79.81
2019-05-10T21:23:16.298Z,79.96
2019-05-10T21:28:34.915Z,79.91
2019-05-10T21:34:08.762Z,79.95
2019-05-10T21:39:14.175Z,79.91
2019-05-10T21:44:32.671Z,79.92
2019-05-10T21:49:51.327Z,79.92
2019-05-10T21:55:10.055Z,79.83
2019-05-10T22:00:30.333Z,79.86
2019-05-10T22:05:48.959Z,80.10
2019-05-10T22:11:07.603Z,80.43
2019-05-10T22:16:26.501Z,80.30
2019-05-10T22:21:45.096Z,80.25
2019-05-10T22:27:03.717Z,80.39
2019-05-10T22:32:22.404Z,80.63
2019-05-10T22:37:41.044Z,80.63
2019-05-10T22:42:59.625Z,80.60
2019-05-10T22:48:18.238Z,80.54
2019-05-10T22:53:36.903Z,80.45
2019-05-10T22:58:55.473Z,80.44
2019-05-10T23:04:14.046Z,80.43
2019-05-10T23:09:32.598Z,80.60
2019-05-10T23:14:51.170Z,80.74
2019-05-10T23:20:09.918Z,80.64
2019-05-10T23:25:28.560Z,80.77
2019-05-10T23:30:47.290Z,80.84
2019-05-10T23:36:05.980Z,80.77
2019-05-10T23:41:24.620Z,80.94
2019-05-10T23:46:43.320Z,81.03
2019-05-10T23:52:02.006Z,80.99
2019-05-10T23:57:20.581Z,80.92
